Time;durP1;ratioP1;P1;durP2;ratioP2;P2;SDS_P1;SDS_P2;PMS_P1;PMS_P2;Temp;Humidity;BMP_temperature;BMP_pressure;BME280_temperature;BME280_humidity;BME280_pressure;Samples;Min_cycle;Max_cycle;Signal;HPM_P1;HPM_P2
2022/09/18 02:23:46;;;;;;;3.20;1.85;;;;;;;6.81;79.48;101292.72;5513911;23;20062;-93
2022/09/18 02:26:13;;;;;;;2.88;2.53;;;;;;;6.80;79.50;101285.75;4778139;29;20035;-94
2022/09/18 02:28:41;;;;;;;4.55;2.55;;;;;;;6.84;79.43;101291.66;4779391;29;20042;-96
2022/09/18 02:31:07;;;;;;;5.88;3.80;;;;;;;6.78;78.88;101289.44;4797145;29;20046;-96
2022/09/18 02:33:36;;;;;;;7.60;4.07;;;;;;;6.77;79.25;101285.13;4782115;29;20495;-93
2022/09/18 02:36:20;;;;;;;5.93;4.20;;;;;;;6.73;79.19;101283.63;4777293;29;20062;-94
2022/09/18 02:38:59;;;;;;;7.47;4.65;;;;;;;6.75;79.61;101287.00;4791003;29;20035;-93
2022/09/18 02:41:50;;;;;;;8.25;4.53;;;;;;;6.75;80.36;101287.88;4792100;29;20034;-94
2022/09/18 02:44:26;;;;;;;9.52;5.85;;;;;;;6.78;80.34;101287.66;4773687;29;20463;-94
2022/09/18 02:47:05;;;;;;;5.28;3.97;;;;;;;6.87;80.89;101288.00;4774701;29;20043;-93
2022/09/18 02:49:41;;;;;;;7.50;4.40;;;;;;;6.86;80.91;101278.44;4773740;29;20129;-93
2022/09/18 02:52:26;;;;;;;5.68;3.85;;;;;;;6.86;81.18;101265.28;4781432;29;20095;-93
2022/09/18 02:55:27;;;;;;;5.57;4.03;;;;;;;6.81;80.83;101286.63;4792051;29;20046;-93
2022/09/18 02:58:07;;;;;;;6.03;3.25;;;;;;;6.42;81.49;101274.13;4793548;29;20460;-92
2022/09/18 03:00:34;;;;;;;7.43;3.60;;;;;;;6.39;82.46;101273.47;4775679;29;20054;-92
2022/09/18 03:03:03;;;;;;;8.18;3.33;;;;;;;6.39;82.38;101269.06;4772235;30;20493;-92
2022/09/18 03:05:38;;;;;;;7.93;3.70;;;;;;;6.42;83.38;101268.03;4776960;29;20110;-96
2022/09/18 03:08:04;;;;;;;6.75;3.15;;;;;;;6.48;82.96;101266.81;4783789;29;20031;-96
2022/09/18 03:10:30;;;;;;;5.80;3.17;;;;;;;6.50;83.02;101272.81;4787196;29;20560;-96
2022/09/18 03:12:56;;;;;;;9.93;3.72;;;;;;;6.41;83.44;101258.47;4779475;29;20046;-96
2022/09/18 03:15:22;;;;;;;4.10;2.88;;;;;;;6.44;84.28;101281.91;4777508;29;20053;-93
2022/09/18 03:17:49;;;;;;;7.55;2.95;;;;;;;6.39;83.76;101276.09;4789965;29;20035;-93
2022/09/18 03:20:16;;;;;;;6.60;2.85;;;;;;;6.27;84.14;101269.84;4766664;29;20121;-96
2022/09/18 03:22:42;;;;;;;4.90;3.28;;;;;;;6.24;84.51;101275.28;4796188;29;20034;-96
2022/09/18 03:25:13;;;;;;;6.85;3.50;;;;;;;6.25;85.37;101274.34;4792288;29;20058;-93
2022/09/18 03:27:39;;;;;;;5.70;3.70;;;;;;;6.33;85.33;101275.56;4780409;29;20039;-93
2022/09/18 03:30:06;;;;;;;8.27;4.00;;;;;;;6.44;86.06;101281.91;4773273;30;20041;-96
2022/09/18 03:32:33;;;;;;;9.43;4.28;;;;;;;6.52;86.05;101270.91;4790000;29;20030;-96
2022/09/18 03:34:59;;;;;;;8.18;4.80;;;;;;;6.62;85.80;101261.53;4793993;29;20070;-93
2022/09/18 03:37:26;;;;;;;5.57;4.05;;;;;;;6.69;85.60;101265.44;4788672;29;20452;-94
2022/09/18 03:39:53;;;;;;;8.23;4.13;;;;;;;6.71;86.38;101278.47;4779282;29;20110;-92
2022/09/18 03:42:19;;;;;;;7.40;3.88;;;;;;;6.78;86.66;101276.31;4797349;29;20130;-93
2022/09/18 03:44:45;;;;;;;6.65;4.10;;;;;;;6.80;86.77;101275.25;4790024;29;20031;-93
2022/09/18 03:47:17;;;;;;;5.35;3.97;;;;;;;6.86;87.09;101267.91;4771867;30;20063;-92
2022/09/18 03:49:44;;;;;;;5.38;3.63;;;;;;;6.89;86.65;101265.09;4790375;29;20050;-93
2022/09/18 03:52:10;;;;;;;4.53;3.22;;;;;;;6.95;87.38;101269.94;4770250;29;20038;-94
2022/09/18 03:54:43;;;;;;;4.43;3.40;;;;;;;7.00;87.69;101267.88;4759188;29;20046;-94
2022/09/18 03:57:27;;;;;;;4.55;3.47;;;;;;;7.04;87.29;101266.72;4792728;29;20041;-93
2022/09/18 04:00:18;;;;;;;6.40;3.45;;;;;;;7.10;87.47;101273.38;4791634;29;20053;-94
2022/09/18 04:02:49;;;;;;;7.22;3.05;;;;;;;7.14;87.23;101268.72;4757925;29;20107;-94
2022/09/18 04:05:41;;;;;;;5.32;3.63;;;;;;;7.18;87.40;101267.59;4796360;29;20140;-96
2022/09/18 04:08:37;;;;;;;5.72;3.72;;;;;;;7.16;87.75;101270.34;4804591;29;20114;-96
2022/09/18 04:11:19;;;;;;;5.03;3.10;;;;;;;7.19;87.97;101264.88;4800573;29;20038;-96
2022/09/18 04:13:48;;;;;;;7.18;3.88;;;;;;;7.14;88.59;101266.97;4792773;29;20053;-95
2022/09/18 04:16:14;;;;;;;5.15;3.15;;;;;;;7.19;88.42;101258.75;4764716;29;20162;-94
2022/09/18 04:18:40;;;;;;;6.13;3.25;;;;;;;7.26;89.04;101267.09;4766657;29;20531;-93
2022/09/18 04:21:07;;;;;;;8.35;3.47;;;;;;;7.32;88.98;101278.06;4792476;29;20042;-95
2022/09/18 04:23:36;;;;;;;6.05;2.95;;;;;;;7.36;89.00;101270.78;4781994;29;20103;-96
2022/09/18 04:26:08;;;;;;;4.93;3.60;;;;;;;7.37;88.97;101264.59;4803098;29;20069;-96
2022/09/18 04:28:39;;;;;;;6.85;3.33;;;;;;;7.46;89.09;101268.38;4803648;29;20070;-94
2022/09/18 04:31:06;;;;;;;7.97;4.38;;;;;;;7.50;89.22;101274.28;4774588;29;20100;-94
2022/09/18 04:33:31;;;;;;;4.85;2.92;;;;;;;7.55;89.22;101275.66;4774983;29;20039;-93
2022/09/18 04:35:57;;;;;;;4.22;2.60;;;;;;;7.56;89.57;101272.06;4774173;29;20042;-94
2022/09/18 04:38:32;;;;;;;3.38;2.55;;;;;;;7.60;89.20;101271.88;4789970;29;20038;-94
2022/09/18 04:41:02;;;;;;;7.63;2.70;;;;;;;7.64;89.80;101268.09;4810148;29;20039;-96
2022/09/18 04:43:34;;;;;;;4.78;2.95;;;;;;;7.73;89.26;101277.97;4808057;29;20043;-96
2022/09/18 04:46:09;;;;;;;4.28;3.13;;;;;;;7.65;89.93;101281.13;4812387;29;20066;-96
2022/09/18 04:48:40;;;;;;;7.00;2.85;;;;;;;7.75;90.17;101276.09;4806138;29;20122;-94
2022/09/18 04:51:06;;;;;;;6.47;3.25;;;;;;;7.76;90.46;101269.00;4795837;29;20154;-94
2022/09/18 04:53:45;;;;;;;3.45;2.40;;;;;;;7.85;90.15;101281.53;4776895;29;20050;-93
2022/09/18 04:56:11;;;;;;;4.43;2.60;;;;;;;7.92;90.21;101284.59;4778232;29;20122;-93
2022/09/18 04:58:39;;;;;;;4.25;2.80;;;;;;;7.90;90.36;101279.44;4762944;30;20039;-93
2022/09/18 05:01:05;;;;;;;5.95;2.90;;;;;;;7.93;90.23;101284.50;4777397;29;20035;-94
2022/09/18 05:03:31;;;;;;;4.10;2.88;;;;;;;8.01;90.72;101276.06;4776714;29;20035;-94
2022/09/18 05:05:57;;;;;;;6.40;3.13;;;;;;;8.03;90.51;101275.97;4793114;29;20045;-94
2022/09/18 05:08:23;;;;;;;7.97;3.22;;;;;;;8.05;90.85;101284.59;4792139;29;20038;-93
2022/09/18 05:10:49;;;;;;;3.60;2.88;;;;;;;8.04;90.86;101281.13;4795950;29;20124;-96
2022/09/18 05:13:18;;;;;;;3.33;3.00;;;;;;;8.09;90.84;101272.06;4812044;29;20051;-96
2022/09/18 05:16:02;;;;;;;3.83;3.13;;;;;;;8.16;90.91;101278.56;4789087;29;20041;-94
2022/09/18 05:18:32;;;;;;;6.18;3.53;;;;;;;8.19;90.91;101273.94;4756453;29;20039;-96
2022/09/18 05:21:05;;;;;;;6.72;3.05;;;;;;;8.24;90.96;101276.25;4788489;29;20039;-96
2022/09/18 05:23:36;;;;;;;8.83;2.87;;;;;;;8.25;90.74;101274.47;4789364;29;20051;-96
2022/09/18 05:26:08;;;;;;;4.63;2.40;;;;;;;8.27;90.93;101265.50;4782069;30;20574;-96
2022/09/18 05:28:37;;;;;;;4.18;2.92;;;;;;;8.24;91.20;101276.25;4787798;29;20051;-94
2022/09/18 05:31:03;;;;;;;4.40;2.97;;;;;;;8.26;91.26;101270.88;4793110;29;20068;-94
2022/09/18 05:33:41;;;;;;;3.65;2.58;;;;;;;8.29;91.56;101275.94;4789529;29;20047;-96
2022/09/18 05:36:08;;;;;;;4.63;2.78;;;;;;;8.30;91.16;101267.91;4806659;29;20053;-96
2022/09/18 05:38:34;;;;;;;5.82;2.92;;;;;;;8.36;91.74;101276.34;4804542;29;20039;-94
2022/09/18 05:41:02;;;;;;;7.32;3.40;;;;;;;8.36;91.41;101279.78;4763154;29;20039;-94
2022/09/18 05:43:28;;;;;;;6.13;3.35;;;;;;;8.29;91.56;101266.25;4783625;29;20057;-93
2022/09/18 05:45:55;;;;;;;4.82;3.00;;;;;;;8.39;91.92;101287.47;4776444;29;20039;-93
2022/09/18 05:48:33;;;;;;;6.05;3.33;;;;;;;8.34;91.79;101265.91;4793234;29;20067;-96
2022/09/18 05:51:02;;;;;;;6.32;3.30;;;;;;;8.38;91.83;101270.00;4778626;29;20049;-96
2022/09/18 05:53:29;;;;;;;3.92;2.28;;;;;;;8.37;92.01;101267.47;4804632;29;20039;-94
2022/09/18 05:56:10;;;;;;;5.97;2.88;;;;;;;8.40;92.09;101283.91;4803082;29;20037;-93
2022/09/18 05:58:36;;;;;;;6.20;3.03;;;;;;;8.44;92.36;101287.19;4791036;29;20038;-94
2022/09/18 06:01:03;;;;;;;4.15;3.17;;;;;;;8.49;92.20;101281.59;4777576;29;20125;-94
2022/09/18 06:03:49;;;;;;;4.13;2.58;;;;;;;8.48;92.08;101283.38;4765613;29;20107;-93
2022/09/18 06:06:17;;;;;;;3.33;2.50;;;;;;;8.53;91.97;101286.53;4791574;29;20069;-93
2022/09/18 06:08:43;;;;;;;4.97;3.03;;;;;;;8.58;91.80;101288.84;4776549;29;20502;-94
2022/09/18 06:11:09;;;;;;;5.15;3.08;;;;;;;8.60;92.18;101288.75;4773754;29;20047;-93
2022/09/18 06:13:35;;;;;;;3.95;2.47;;;;;;;8.60;91.84;101294.84;4793782;29;20657;-93
2022/09/18 06:16:01;;;;;;;8.18;2.92;;;;;;;8.64;92.15;101296.31;4775552;30;20055;-94
2022/09/18 06:18:45;;;;;;;6.55;3.15;;;;;;;8.57;92.33;101295.06;4791540;29;20070;-95
2022/09/18 06:21:13;;;;;;;5.03;2.90;;;;;;;8.54;92.28;101296.13;4783957;29;20503;-94
2022/09/18 06:23:41;;;;;;;9.60;3.80;;;;;;;8.54;93.15;101287.34;4774347;29;20100;-94
2022/09/18 06:26:15;;;;;;;2.75;2.40;;;;;;;8.58;93.10;101288.00;4787989;29;20129;-93
2022/09/18 06:28:41;;;;;;;4.15;2.67;;;;;;;8.63;93.25;101291.97;4777248;29;20488;-94
2022/09/18 06:31:09;;;;;;;4.90;2.53;;;;;;;8.65;93.23;101294.50;4777314;29;20050;-95
2022/09/18 06:34:07;;;;;;;2.97;2.13;;;;;;;8.66;93.69;101290.94;4784303;29;20072;-94
2022/09/18 06:36:32;;;;;;;6.00;2.00;;;;;;;8.67;93.79;101289.97;4795862;29;20031;-94
2022/09/18 06:39:24;;;;;;;5.50;2.35;;;;;;;8.69;93.87;101294.16;4771291;29;20054;-94
2022/09/18 06:41:54;;;;;;;4.00;2.15;;;;;;;8.73;94.17;101296.63;4773667;30;20055;-94
2022/09/18 06:44:40;;;;;;;8.18;2.28;;;;;;;8.77;94.32;101292.78;4790802;29;20061;-94
2022/09/18 06:47:07;;;;;;;3.60;1.90;;;;;;;8.81;94.42;101287.19;4793593;29;20050;-94
2022/09/18 06:49:45;;;;;;;3.53;2.15;;;;;;;8.85;94.64;101289.59;4789571;29;20023;-94
2022/09/18 06:52:11;;;;;;;6.72;2.03;;;;;;;8.93;95.12;101295.97;4783820;29;20043;-94
2022/09/18 06:54:37;;;;;;;4.22;1.15;;;;;;;8.93;95.28;101282.78;4787740;29;20035;-95
2022/09/18 06:57:05;;;;;;;5.50;2.03;;;;;;;9.01;95.67;101281.41;4768413;29;20050;-95
2022/09/18 06:59:31;;;;;;;5.43;1.52;;;;;;;9.07;96.06;101294.13;4773391;29;20031;-94
2022/09/18 07:01:59;;;;;;;1.55;1.30;;;;;;;9.14;96.41;101283.97;4786776;29;20110;-95
2022/09/18 07:04:40;;;;;;;3.78;1.20;;;;;;;9.17;96.84;101286.38;4791162;29;20043;-94
2022/09/18 07:07:08;;;;;;;3.08;1.10;;;;;;;9.24;97.01;101284.97;4784058;29;20043;-94
2022/09/18 07:09:45;;;;;;;2.60;1.55;;;;;;;9.33;97.18;101293.16;4776407;29;20038;-95
2022/09/18 07:12:31;;;;;;;10.27;1.67;;;;;;;9.38;97.40;101296.28;4776602;29;20043;-94
2022/09/18 07:15:19;;;;;;;2.97;1.15;;;;;;;9.37;97.43;101282.25;4763540;29;20038;-94
2022/09/18 07:17:47;;;;;;;3.15;1.15;;;;;;;9.49;98.08;101298.13;4756012;29;20042;-95
2022/09/18 07:20:24;;;;;;;2.60;1.10;;;;;;;9.53;97.82;101303.03;4775664;29;20038;-95
2022/09/18 07:22:55;;;;;;;4.07;1.27;;;;;;;9.59;98.26;101303.53;4773707;29;20130;-94
2022/09/18 07:25:35;;;;;;;2.45;0.90;;;;;;;9.62;98.49;101311.22;4776069;29;20039;-94
2022/09/18 07:28:03;;;;;;;5.18;1.10;;;;;;;9.64;98.64;101309.28;4775198;29;20098;-94
2022/09/18 07:30:32;;;;;;;2.28;1.00;;;;;;;9.70;98.69;101308.81;4790815;29;20038;-94
2022/09/18 07:33:01;;;;;;;3.45;1.52;;;;;;;9.73;99.28;101313.88;4787028;30;20043;-95
2022/09/18 07:35:31;;;;;;;3.17;1.20;;;;;;;9.75;99.30;101309.31;4776507;29;20047;-94
2022/09/18 07:38:04;;;;;;;8.90;1.52;;;;;;;9.80;99.44;101309.81;4785238;29;20157;-93
2022/09/18 07:40:46;;;;;;;3.55;1.17;;;;;;;9.80;99.84;101301.91;4775675;29;20053;-95
2022/09/18 07:43:52;;;;;;;3.00;1.08;;;;;;;9.83;99.66;101307.88;4762126;29;20050;-92
2022/09/18 07:46:18;;;;;;;4.40;1.10;;;;;;;9.92;99.88;101315.13;4787946;29;20039;-92
2022/09/18 07:48:47;;;;;;;2.85;0.80;;;;;;;9.96;100.00;101313.06;4786952;29;20107;-91
2022/09/18 07:51:34;;;;;;;5.30;1.15;;;;;;;10.01;99.87;101316.19;4757729;30;20078;-91
2022/09/18 07:53:59;;;;;;;3.53;1.08;;;;;;;10.03;100.00;101319.56;4771918;30;20043;-92
2022/09/18 07:56:44;;;;;;;4.80;1.00;;;;;;;10.05;100.00;101317.63;4774854;30;20028;-92
2022/09/18 07:59:10;;;;;;;5.80;1.52;;;;;;;10.10;100.00;101320.75;4757537;30;20039;-90
2022/09/18 08:01:36;;;;;;;2.45;1.63;;;;;;;10.05;100.00;101315.84;4772951;30;20050;-90
2022/09/18 08:04:05;;;;;;;5.57;2.40;;;;;;;10.00;100.00;101314.53;4780250;30;20035;-91
2022/09/18 08:06:31;;;;;;;2.55;1.75;;;;;;;10.00;100.00;101320.63;4787871;30;20044;-91
2022/09/18 08:09:12;;;;;;;7.63;1.70;;;;;;;9.99;100.00;101312.81;4760530;30;20048;-91
2022/09/18 08:12:04;;;;;;;2.58;1.20;;;;;;;10.01;100.00;101319.69;4755070;30;20043;-92
2022/09/18 08:14:45;;;;;;;2.70;1.52;;;;;;;10.03;100.00;101317.75;4755295;30;20055;-93
2022/09/18 08:17:25;;;;;;;2.40;2.20;;;;;;;10.07;100.00;101315.72;4772278;29;20035;-92
2022/09/18 08:20:09;;;;;;;3.75;2.22;;;;;;;10.07;100.00;101315.72;4786456;29;20047;-91
2022/09/18 08:22:43;;;;;;;4.47;2.50;;;;;;;10.10;100.00;101322.56;4773839;30;20043;-93
2022/09/18 08:25:10;;;;;;;3.90;2.38;;;;;;;10.16;100.00;101324.75;4763971;30;20062;-93
2022/09/18 08:27:40;;;;;;;3.20;2.03;;;;;;;10.23;100.00;101311.88;4760725;30;20497;-93
2022/09/18 08:30:08;;;;;;;3.63;1.83;;;;;;;10.29;100.00;101314.03;4775795;30;20038;-91
2022/09/18 08:32:35;;;;;;;2.70;1.65;;;;;;;10.36;100.00;101307.31;4776212;30;20112;-91
2022/09/18 08:35:03;;;;;;;3.33;1.58;;;;;;;10.41;100.00;101309.59;4790888;30;20514;-92
2022/09/18 08:37:29;;;;;;;1.08;0.88;;;;;;;10.47;100.00;101306.50;4761260;30;20425;-92
2022/09/18 08:40:16;;;;;;;7.38;0.90;;;;;;;10.55;100.00;101311.16;4763502;30;20054;-92
2022/09/18 08:43:20;;;;;;;3.47;1.48;;;;;;;10.63;100.00;101311.41;4779107;29;20085;-93
2022/09/18 08:45:48;;;;;;;4.72;1.60;;;;;;;10.72;100.00;101314.28;4790299;29;20051;-92
2022/09/18 08:48:30;;;;;;;3.65;1.60;;;;;;;10.83;100.00;101316.84;4776179;30;20038;-92
2022/09/18 08:51:11;;;;;;;3.22;0.80;;;;;;;10.90;100.00;101320.72;4757320;30;20035;-91
2022/09/18 08:53:44;;;;;;;3.58;1.92;;;;;;;10.98;100.00;101322.72;4774997;30;20103;-94
2022/09/18 08:56:46;;;;;;;4.53;1.73;;;;;;;11.01;100.00;101319.81;4770842;30;20366;-92
2022/09/18 08:59:40;;;;;;;5.85;1.48;;;;;;;11.07;100.00;101315.81;4746191;29;20039;-93
2022/09/18 09:02:42;;;;;;;1.15;1.05;;;;;;;11.09;100.00;101328.94;4769514;29;20059;-93
2022/09/18 09:05:14;;;;;;;4.18;2.13;;;;;;;11.17;100.00;101329.16;4777129;30;20055;-91
2022/09/18 09:08:03;;;;;;;6.63;1.92;;;;;;;11.28;100.00;101331.75;4783281;29;20415;-94
2022/09/18 09:11:13;;;;;;;6.30;2.20;;;;;;;11.39;100.00;101336.16;4763082;30;20043;-93
2022/09/18 09:14:00;;;;;;;3.90;1.60;;;;;;;11.59;100.00;101346.03;4690832;30;20048;-94
2022/09/18 09:16:52;;;;;;;3.42;1.58;;;;;;;11.70;100.00;101337.19;4696640;30;20053;-94
2022/09/18 09:32:24;;;;;;;1.55;0.88;;;;;;;12.27;100.00;101336.81;4753497;30;20505;-95
2022/09/18 09:35:53;;;;;;;2.33;0.50;;;;;;;12.52;100.00;101338.16;4785240;29;20043;-94
2022/09/18 09:38:56;;;;;;;1.15;0.80;;;;;;;12.80;99.03;101336.69;4780130;29;20062;-94
2022/09/18 09:41:28;;;;;;;1.52;0.50;;;;;;;13.04;96.65;101331.00;4742748;30;20043;-95
2022/09/18 09:44:08;;;;;;;3.45;0.70;;;;;;;13.34;94.46;101329.19;4760887;29;20080;-95
2022/09/18 09:46:56;;;;;;;0.82;0.50;;;;;;;13.60;92.18;101327.78;4788392;29;20050;-94
2022/09/18 09:49:25;;;;;;;2.97;0.40;;;;;;;13.82;89.47;101331.94;4757795;30;20038;-95
2022/09/18 09:52:16;;;;;;;3.47;0.43;;;;;;;13.89;87.71;101334.84;4758124;29;20043;-96
2022/09/18 09:54:43;;;;;;;0.90;0.40;;;;;;;13.86;86.58;101330.66;4772037;30;20745;-93
2022/09/18 09:57:42;;;;;;;1.73;0.40;;;;;;;13.79;84.08;101334.03;4791371;29;20047;-94
2022/09/18 10:00:18;;;;;;;1.83;0.55;;;;;;;13.71;84.86;101335.59;4774605;29;20031;-94
2022/09/18 10:03:28;;;;;;;0.90;0.50;;;;;;;13.67;83.81;101331.53;4777554;30;20073;-96
2022/09/18 10:06:34;;;;;;;1.90;0.50;;;;;;;13.67;83.39;101334.19;4755349;30;20040;-94
2022/09/18 10:09:39;;;;;;;0.70;0.43;;;;;;;13.70;83.15;101335.72;4763967;30;20044;-94
2022/09/18 10:12:22;;;;;;;2.33;0.40;;;;;;;13.68;82.55;101333.22;4787842;29;20122;-95
2022/09/18 10:15:21;;;;;;;2.40;0.50;;;;;;;13.69;81.84;101331.41;4756081;30;20100;-95
2022/09/18 10:17:55;;;;;;;3.25;0.40;;;;;;;13.69;81.22;101332.25;4785438;29;20039;-96
2022/09/18 10:20:29;;;;;;;2.33;0.47;;;;;;;13.75;80.69;101331.69;4781193;29;20043;-95
2022/09/18 10:23:08;;;;;;;2.50;0.70;;;;;;;13.84;80.47;101337.94;4743640;30;20039;-93
2022/09/18 10:25:51;;;;;;;1.23;0.30;;;;;;;13.87;80.06;101337.66;4768629;30;20043;-94
2022/09/18 10:28:17;;;;;;;1.95;0.35;;;;;;;13.89;79.91;101333.03;4787656;29;20050;-94
2022/09/18 10:30:52;;;;;;;1.15;0.40;;;;;;;13.93;79.00;101330.94;4776318;30;20043;-95
2022/09/18 10:33:39;;;;;;;0.50;0.40;;;;;;;13.96;77.54;101329.78;4782841;30;20047;-94
2022/09/18 10:36:36;;;;;;;0.85;0.20;;;;;;;13.97;76.98;101339.44;4738099;30;20113;-94
2022/09/18 10:39:28;;;;;;;1.52;0.50;;;;;;;13.97;76.96;101344.75;4769352;29;20086;-95
2022/09/18 10:42:04;;;;;;;2.08;0.30;;;;;;;13.95;76.60;101331.59;4795629;29;20046;-95
2022/09/18 10:44:36;;;;;;;0.77;0.52;;;;;;;13.95;76.19;101344.06;4772813;29;20039;-95
2022/09/18 10:47:19;;;;;;;1.80;0.50;;;;;;;13.92;75.61;101342.53;4753979;30;20048;-96
2022/09/18 10:50:05;;;;;;;0.93;0.50;;;;;;;13.95;75.75;101341.41;4757780;29;20051;-95
2022/09/18 10:52:38;;;;;;;7.65;0.70;;;;;;;14.00;75.99;101339.13;4760887;30;20092;-95
2022/09/18 10:55:26;;;;;;;4.40;0.50;;;;;;;14.03;76.06;101336.19;4757373;30;20047;-94
2022/09/18 10:58:13;;;;;;;1.17;0.30;;;;;;;14.04;75.91;101337.03;4774092;29;20130;-94
2022/09/18 11:04:31;;;;;;;2.50;0.50;;;;;;;13.94;75.75;101337.06;4785704;29;20501;-95
2022/09/18 11:07:30;;;;;;;1.20;0.40;;;;;;;13.94;76.38;101327.28;4775326;29;20039;-95
2022/09/18 11:10:27;;;;;;;1.88;0.40;;;;;;;14.02;76.50;101351.31;4760627;30;20051;-94
2022/09/18 11:13:03;;;;;;;2.05;0.32;;;;;;;14.02;76.23;101346.00;4779997;30;20039;-94
2022/09/18 11:15:54;;;;;;;1.73;0.65;;;;;;;13.99;76.14;101342.78;4762107;30;20032;-94
2022/09/18 11:18:33;;;;;;;3.80;0.40;;;;;;;14.05;76.34;101349.38;4753962;30;20040;-95
2022/09/18 11:21:14;;;;;;;2.03;0.75;;;;;;;14.07;76.29;101348.22;4744676;30;20039;-95
2022/09/18 11:24:35;;;;;;;3.40;0.57;;;;;;;14.11;76.19;101351.44;4756531;30;20096;-95
2022/09/18 11:27:23;;;;;;;5.00;0.90;;;;;;;14.09;76.66;101354.25;4740205;30;20043;-94
2022/09/18 11:30:13;;;;;;;3.38;0.55;;;;;;;14.23;76.90;101354.75;4775567;29;20039;-95
2022/09/18 11:32:40;;;;;;;2.65;0.60;;;;;;;14.30;77.22;101349.69;4784792;29;20046;-94
2022/09/18 11:35:14;;;;;;;3.95;0.60;;;;;;;14.40;77.34;101355.78;4758464;30;20512;-93
2022/09/18 11:37:55;;;;;;;1.63;0.57;;;;;;;14.46;77.54;101344.56;4787391;29;20035;-94
2022/09/18 11:40:23;;;;;;;1.95;0.57;;;;;;;14.51;78.05;101344.97;4773039;30;20374;-94
2022/09/18 11:42:52;;;;;;;5.90;0.80;;;;;;;14.60;77.93;101342.41;4747170;30;20123;-94
2022/09/18 11:45:34;;;;;;;2.42;0.88;;;;;;;14.57;77.69;101351.50;4769007;30;20039;-94
2022/09/18 11:48:10;;;;;;;2.78;1.10;;;;;;;14.55;77.88;101342.84;4756851;30;20082;-95
2022/09/18 11:50:37;;;;;;;2.50;0.75;;;;;;;14.54;77.86;101343.81;4742704;30;20051;-94
2022/09/18 11:53:18;;;;;;;2.28;1.58;;;;;;;14.55;77.43;101345.50;4791181;29;20059;-95
2022/09/18 11:55:55;;;;;;;3.20;0.80;;;;;;;14.59;77.22;101346.03;4771547;30;20500;-95
2022/09/18 11:58:30;;;;;;;3.20;0.55;;;;;;;14.64;77.25;101354.41;4766908;30;20036;-95
2022/09/18 12:01:30;;;;;;;3.90;0.50;;;;;;;14.60;76.67;101356.56;4753947;30;20050;-96
2022/09/18 12:04:35;;;;;;;0.90;0.45;;;;;;;14.63;76.85;101358.06;4758486;29;20167;-94
2022/09/18 12:07:19;;;;;;;5.38;0.82;;;;;;;14.66;76.99;101352.44;4784722;29;20130;-93
2022/09/18 12:10:00;;;;;;;1.73;0.38;;;;;;;14.68;76.76;101353.16;4746542;30;20051;-94
2022/09/18 12:12:37;;;;;;;1.40;0.75;;;;;;;14.71;76.79;101350.19;4774734;29;20040;-95
2022/09/18 12:15:12;;;;;;;2.38;0.68;;;;;;;14.73;77.08;101347.38;4776822;30;20100;-94
2022/09/18 12:17:49;;;;;;;2.47;0.40;;;;;;;14.71;77.12;101352.00;4776720;29;20035;-94
2022/09/18 12:20:22;;;;;;;1.33;0.40;;;;;;;14.73;77.33;101360.66;4761040;30;20497;-94
2022/09/18 12:22:53;;;;;;;1.75;0.50;;;;;;;14.78;77.46;101365.53;4776268;30;20096;-90
2022/09/18 12:25:27;;;;;;;2.35;0.70;;;;;;;14.80;77.95;101360.91;4766167;29;20055;-92
2022/09/18 12:28:45;;;;;;;2.70;0.63;;;;;;;14.76;77.65;101360.38;4786982;29;20104;-92
2022/09/18 12:31:17;;;;;;;2.30;0.50;;;;;;;14.78;78.13;101360.22;4785831;29;20047;-94
2022/09/18 12:33:42;;;;;;;1.08;0.45;;;;;;;14.76;78.45;101358.53;4791933;29;20043;-93
2022/09/18 12:36:14;;;;;;;6.93;0.57;;;;;;;14.77;78.64;101356.72;4774715;30;20112;-93
2022/09/18 12:38:56;;;;;;;3.80;0.55;;;;;;;14.79;78.58;101354.78;4774931;29;20043;-93
2022/09/18 12:41:28;;;;;;;1.70;0.52;;;;;;;14.84;78.59;101359.66;4770961;30;20074;-95
2022/09/18 12:44:13;;;;;;;2.13;0.50;;;;;;;14.82;78.81;101353.63;4775540;29;20078;-94
2022/09/18 12:46:48;;;;;;;1.15;0.43;;;;;;;14.85;78.85;101361.31;4778905;29;20044;-91
2022/09/18 12:49:38;;;;;;;4.10;0.70;;;;;;;14.87;79.32;101360.16;4743031;30;20050;-91
2022/09/18 12:52:23;;;;;;;4.90;1.02;;;;;;;14.87;79.51;101360.16;4789477;29;20505;-90
2022/09/18 12:55:21;;;;;;;2.17;0.50;;;;;;;14.74;79.42;101365.84;4782077;30;20588;-92
2022/09/18 12:58:14;;;;;;;1.85;0.60;;;;;;;14.68;79.75;101357.63;4777701;30;20550;-95
2022/09/18 13:00:44;;;;;;;1.90;0.60;;;;;;;14.66;80.24;101360.44;4751807;30;20090;-95
2022/09/18 13:03:32;;;;;;;4.25;0.50;;;;;;;14.64;80.25;101357.06;4757660;30;20063;-93
2022/09/18 13:06:06;;;;;;;3.17;0.60;;;;;;;14.66;80.65;101357.75;4772032;30;20039;-94
2022/09/18 13:09:18;;;;;;;5.00;0.73;;;;;;;14.63;80.45;101355.41;4773421;30;20032;-92
2022/09/18 13:11:52;;;;;;;1.50;0.77;;;;;;;14.56;81.03;101357.81;4735405;30;20549;-94
2022/09/18 13:14:27;;;;;;;2.38;0.63;;;;;;;14.55;81.08;101358.81;4725536;30;20086;-95
2022/09/18 13:17:18;;;;;;;4.28;0.60;;;;;;;14.55;80.81;101360.63;4753585;30;20047;-93
2022/09/18 13:20:04;;;;;;;2.55;0.60;;;;;;;14.60;80.99;101345.06;4790206;29;20506;-95
2022/09/18 13:22:35;;;;;;;3.30;0.50;;;;;;;14.63;80.93;101352.75;4774828;30;20039;-94
2022/09/18 13:25:03;;;;;;;2.35;0.50;;;;;;;14.68;81.06;101352.28;4755957;30;20063;-92
2022/09/18 13:27:31;;;;;;;0.70;0.45;;;;;;;14.71;80.74;101352.84;4788651;29;20052;-92
2022/09/18 13:29:58;;;;;;;4.30;0.50;;;;;;;14.71;80.74;101355.50;4773683;29;20046;-93
2022/09/18 13:32:38;;;;;;;2.97;0.93;;;;;;;14.73;80.35;101356.16;4778664;29;20047;-91
2022/09/18 13:35:12;;;;;;;1.27;0.63;;;;;;;14.74;81.00;101357.00;4775101;30;20548;-91
2022/09/18 13:37:40;;;;;;;3.13;0.70;;;;;;;14.73;81.46;101355.34;4777966;29;20500;-92
2022/09/18 13:40:25;;;;;;;1.27;0.65;;;;;;;14.76;81.11;101347.06;4756382;29;20484;-90
2022/09/18 13:42:51;;;;;;;3.35;1.92;;;;;;;14.74;81.58;101349.88;4787709;29;20090;-90
2022/09/18 13:45:23;;;;;;;5.55;2.30;;;;;;;14.70;81.50;101348.47;4743956;29;20070;-92
2022/09/18 13:47:55;;;;;;;1.08;0.98;;;;;;;14.68;81.56;101344.31;4789113;29;20114;-90
2022/09/18 13:50:21;;;;;;;2.25;1.30;;;;;;;14.58;81.95;101344.38;4776819;30;20035;-90
2022/09/18 13:52:54;;;;;;;3.67;1.08;;;;;;;14.57;81.86;101343.50;4772331;29;20458;-91
2022/09/18 13:55:21;;;;;;;3.40;1.40;;;;;;;14.61;82.17;101341.41;4789699;29;20049;-91
2022/09/18 13:57:47;;;;;;;5.07;1.45;;;;;;;14.61;81.97;101358.22;4774267;30;20096;-88
2022/09/18 14:00:19;;;;;;;3.13;1.42;;;;;;;14.60;81.90;101343.25;4775432;30;20047;-91
2022/09/18 14:02:49;;;;;;;3.38;1.23;;;;;;;14.60;82.42;101347.72;4739979;29;20043;-91
2022/09/18 14:05:48;;;;;;;3.97;1.15;;;;;;;14.58;82.55;101347.03;4775397;29;20039;-91
2022/09/18 14:08:27;;;;;;;2.65;1.58;;;;;;;14.63;82.92;101339.44;4759222;30;20063;-90
2022/09/18 14:11:09;;;;;;;1.77;1.20;;;;;;;14.60;83.84;101345.06;4771829;29;20067;-91
2022/09/18 14:13:50;;;;;;;1.58;1.10;;;;;;;14.59;84.12;101344.22;4787800;29;20031;-92
2022/09/18 14:16:18;;;;;;;5.93;1.33;;;;;;;14.58;84.41;101339.03;4752020;29;20039;-92
2022/09/18 14:18:47;;;;;;;1.92;1.35;;;;;;;14.57;84.47;101340.03;4773255;30;20071;-93
2022/09/18 14:21:16;;;;;;;3.45;1.70;;;;;;;14.59;84.17;101348.69;4787850;29;20054;-90
2022/09/18 14:23:47;;;;;;;3.40;1.70;;;;;;;14.55;84.03;101336.69;4792752;29;20043;-91
2022/09/18 14:26:29;;;;;;;2.58;1.50;;;;;;;14.55;84.06;101340.19;4771809;29;20055;-94
2022/09/18 14:29:11;;;;;;;2.90;1.45;;;;;;;14.57;84.03;101329.41;4788767;29;20062;-92
2022/09/18 14:31:50;;;;;;;5.72;2.20;;;;;;;14.62;84.38;101330.59;4768212;29;20493;-92
2022/09/18 14:34:24;;;;;;;2.45;1.45;;;;;;;14.68;84.29;101331.00;4774489;30;20132;-91
2022/09/18 14:36:53;;;;;;;6.50;2.00;;;;;;;14.71;84.08;101330.72;4788387;29;20122;-91
2022/09/18 14:39:23;;;;;;;3.33;1.90;;;;;;;14.74;84.02;101322.41;4771514;30;20043;-92
2022/09/18 14:41:52;;;;;;;6.20;1.80;;;;;;;14.73;84.25;101315.44;4758497;30;20051;-92
2022/09/18 14:44:18;;;;;;;5.28;2.25;;;;;;;14.82;84.27;101329.69;4769341;30;20039;-92
2022/09/18 14:47:04;;;;;;;3.53;2.10;;;;;;;14.76;83.65;101320.47;4770393;30;20031;-92
2022/09/18 14:49:56;;;;;;;4.68;2.45;;;;;;;14.70;83.54;101319.22;4786748;29;20143;-91